createdAt,value
2018-06-19T00:00:26.642Z,3.73
2018-06-19T00:02:56.157Z,2.90
2018-06-19T00:05:30.207Z,3.23
2018-06-19T00:08:01.668Z,3.33
2018-06-19T00:10:31.815Z,3.60
2018-06-19T00:13:01.291Z,3.10
2018-06-19T00:15:30.851Z,3.57
2018-06-19T00:18:06.250Z,3.47
2018-06-19T00:20:35.696Z,3.70
2018-06-19T00:23:05.364Z,3.60
2018-06-19T00:25:34.884Z,3.50
2018-06-19T00:28:04.454Z,3.33
2018-06-19T00:30:34.137Z,3.10
2018-06-19T00:33:03.697Z,3.00
2018-06-19T00:35:33.310Z,3.80
2018-06-19T00:38:02.908Z,3.50
2018-06-19T00:40:32.396Z,3.73
2018-06-19T00:43:01.768Z,3.27
2018-06-19T00:45:31.315Z,3.10
2018-06-19T00:48:00.871Z,3.30
2018-06-19T00:50:30.323Z,3.37
2018-06-19T00:53:00.316Z,3.47
2018-06-19T00:55:29.880Z,3.80
2018-06-19T00:57:59.379Z,4.00
2018-06-19T01:00:28.940Z,4.20
2018-06-19T01:02:58.458Z,4.20
2018-06-19T01:05:27.922Z,3.33
2018-06-19T01:07:57.427Z,3.33
2018-06-19T01:10:27.014Z,3.77
2018-06-19T01:12:56.461Z,3.40
2018-06-19T01:15:25.961Z,3.87
2018-06-19T01:17:55.484Z,2.97
2018-06-19T01:20:24.990Z,3.83
2018-06-19T01:22:54.435Z,3.27
2018-06-19T01:25:23.934Z,3.33
2018-06-19T01:27:53.387Z,3.70
2018-06-19T01:30:22.936Z,4.57
2018-06-19T01:32:52.369Z,4.50
2018-06-19T01:35:21.845Z,4.20
2018-06-19T01:37:51.784Z,3.27
2018-06-19T01:40:21.350Z,3.30
2018-06-19T01:42:50.861Z,3.23
2018-06-19T01:45:20.444Z,3.83
2018-06-19T01:47:49.994Z,3.17
2018-06-19T01:50:19.532Z,3.83
2018-06-19T01:52:48.942Z,3.33
2018-06-19T01:55:18.295Z,4.10
2018-06-19T01:57:47.827Z,3.87
2018-06-19T02:00:17.199Z,4.00
2018-06-19T02:02:46.668Z,4.03
2018-06-19T02:05:16.051Z,4.80
2018-06-19T02:07:45.565Z,3.47
2018-06-19T02:10:14.998Z,4.33
2018-06-19T02:12:44.449Z,4.00
2018-06-19T02:15:13.881Z,4.27
2018-06-19T02:17:43.315Z,4.50
2018-06-19T02:20:12.697Z,4.47
2018-06-19T02:22:42.128Z,4.73
2018-06-19T02:25:11.522Z,5.93
2018-06-19T02:27:40.873Z,6.00
2018-06-19T02:30:10.327Z,5.63
2018-06-19T02:32:39.762Z,6.60
2018-06-19T02:35:09.230Z,6.17
2018-06-19T02:37:38.746Z,6.90
2018-06-19T02:40:08.267Z,7.30
2018-06-19T02:42:37.760Z,7.77
2018-06-19T02:45:07.518Z,8.93
2018-06-19T02:47:37.305Z,8.80
2018-06-19T02:50:06.878Z,7.70
2018-06-19T02:52:36.645Z,8.73
2018-06-19T02:55:06.338Z,8.60
2018-06-19T02:57:46.330Z,8.93
2018-06-19T03:00:15.940Z,9.20
2018-06-19T03:02:45.655Z,9.80
2018-06-19T03:05:15.414Z,8.97
2018-06-19T03:07:45.196Z,9.90
2018-06-19T03:10:14.727Z,11.27
2018-06-19T03:12:44.342Z,11.20
2018-06-19T03:15:13.899Z,11.30
2018-06-19T03:17:43.688Z,10.10
2018-06-19T03:20:13.238Z,10.80
2018-06-19T03:22:42.811Z,10.90
2018-06-19T03:25:12.272Z,11.23
2018-06-19T03:27:41.764Z,12.27
2018-06-19T03:30:11.237Z,15.00
2018-06-19T03:32:40.601Z,15.93
2018-06-19T03:35:10.007Z,17.70
2018-06-19T03:37:39.381Z,18.07
2018-06-19T03:40:08.832Z,19.73
2018-06-19T03:42:38.343Z,21.63
2018-06-19T03:45:07.822Z,20.20
2018-06-19T03:47:37.298Z,21.63
2018-06-19T03:50:07.008Z,23.73
2018-06-19T03:52:36.681Z,22.90
2018-06-19T03:55:06.547Z,22.73
2018-06-19T03:57:36.131Z,24.60
2018-06-19T04:00:05.957Z,23.87
2018-06-19T04:02:35.416Z,23.53
2018-06-19T04:05:04.907Z,23.30
2018-06-19T04:07:34.303Z,22.53
2018-06-19T04:10:04.010Z,21.30
2018-06-19T04:12:33.419Z,21.90
2018-06-19T04:15:02.821Z,26.83
2018-06-19T04:17:32.269Z,21.50
2018-06-19T04:20:01.709Z,20.20
2018-06-19T04:22:31.275Z,19.47
2018-06-19T04:25:00.839Z,18.20
2018-06-19T04:27:30.377Z,19.70
2018-06-19T04:30:00.024Z,19.30
2018-06-19T04:32:29.764Z,19.33
2018-06-19T04:35:00.056Z,18.70
2018-06-19T04:37:29.688Z,17.47
2018-06-19T04:39:59.402Z,16.27
2018-06-19T04:42:29.026Z,16.03
2018-06-19T04:44:58.532Z,16.33
2018-06-19T04:47:27.942Z,14.57
2018-06-19T04:49:57.335Z,14.33
2018-06-19T04:52:26.779Z,14.60
2018-06-19T04:54:56.181Z,13.57
2018-06-19T04:57:25.657Z,12.80
2018-06-19T04:59:55.028Z,12.37
2018-06-19T05:02:24.453Z,12.73
2018-06-19T05:04:53.895Z,13.37
2018-06-19T05:07:23.351Z,12.67
2018-06-19T05:09:52.827Z,13.10
2018-06-19T05:12:22.240Z,11.73
2018-06-19T05:14:51.733Z,12.10
2018-06-19T05:17:21.144Z,12.57
2018-06-19T05:19:50.609Z,10.40
2018-06-19T05:22:19.972Z,11.00
2018-06-19T05:24:49.410Z,10.60
2018-06-19T05:27:18.812Z,10.20
2018-06-19T05:29:48.277Z,10.43
2018-06-19T05:32:17.716Z,9.90
2018-06-19T05:34:47.150Z,9.93
2018-06-19T05:37:16.625Z,9.13
2018-06-19T05:39:46.032Z,9.20
2018-06-19T05:42:15.499Z,8.20
2018-06-19T05:44:44.933Z,8.00
2018-06-19T05:47:14.357Z,8.97
2018-06-19T05:49:43.761Z,7.40
2018-06-19T05:52:13.243Z,6.43
2018-06-19T05:54:42.712Z,6.30
2018-06-19T05:57:12.158Z,5.63
2018-06-19T05:59:41.588Z,5.87
2018-06-19T06:02:10.952Z,5.27
2018-06-19T06:04:40.338Z,4.93
2018-06-19T06:07:09.711Z,4.70
2018-06-19T06:09:39.130Z,3.90
2018-06-19T06:12:08.521Z,3.53
2018-06-19T06:14:37.939Z,3.17
2018-06-19T06:17:07.397Z,3.50
2018-06-19T06:19:36.756Z,3.53
2018-06-19T06:22:06.297Z,3.17
2018-06-19T06:24:35.646Z,2.40
2018-06-19T06:27:05.888Z,2.47
2018-06-19T06:29:35.046Z,2.23
2018-06-19T06:32:04.473Z,2.50
2018-06-19T06:34:33.969Z,2.60
2018-06-19T06:37:03.533Z,2.50
2018-06-19T06:39:33.014Z,2.90
2018-06-19T06:42:02.492Z,2.10
2018-06-19T06:44:31.884Z,2.70
2018-06-19T06:47:01.267Z,2.77
2018-06-19T06:49:30.751Z,2.90
2018-06-19T06:52:00.200Z,2.80
2018-06-19T06:54:29.665Z,3.00
2018-06-19T06:57:00.874Z,2.83
2018-06-19T06:59:31.176Z,3.40
2018-06-19T07:02:00.608Z,3.33
2018-06-19T07:04:30.018Z,4.07
2018-06-19T07:06:59.484Z,3.70
2018-06-19T07:09:28.925Z,3.40
2018-06-19T07:11:58.394Z,3.70
2018-06-19T07:14:27.796Z,3.27
2018-06-19T07:16:57.240Z,3.73
2018-06-19T07:19:26.643Z,3.70
2018-06-19T07:21:56.026Z,3.60
2018-06-19T07:24:25.441Z,5.00
2018-06-19T07:26:54.799Z,4.33
2018-06-19T07:29:24.174Z,3.40
2018-06-19T07:31:53.647Z,3.27
2018-06-19T07:34:23.032Z,2.80
2018-06-19T07:36:52.462Z,3.60
2018-06-19T07:39:21.808Z,3.20
2018-06-19T07:41:51.303Z,3.17
2018-06-19T07:44:20.624Z,2.93
2018-06-19T07:46:50.056Z,2.80
2018-06-19T07:49:19.473Z,2.70
2018-06-19T07:51:48.936Z,2.27
2018-06-19T07:54:18.304Z,2.90
2018-06-19T07:56:47.686Z,2.90
2018-06-19T07:59:17.113Z,2.13
2018-06-19T08:01:46.748Z,2.27
2018-06-19T08:04:16.201Z,3.10
2018-06-19T08:06:45.604Z,1.83
2018-06-19T08:09:15.003Z,2.70
2018-06-19T08:11:44.435Z,2.63
2018-06-19T08:14:13.820Z,2.83
2018-06-19T08:16:43.310Z,3.13
2018-06-19T08:19:12.632Z,2.77
2018-06-19T08:21:42.094Z,2.97
2018-06-19T08:24:11.496Z,2.60
2018-06-19T08:26:40.924Z,2.77
2018-06-19T08:29:10.391Z,3.00
2018-06-19T08:31:39.951Z,2.17
2018-06-19T08:34:09.419Z,2.80
2018-06-19T08:36:38.822Z,2.63
2018-06-19T08:39:11.522Z,2.67
2018-06-19T08:41:41.518Z,3.00
2018-06-19T08:44:10.979Z,2.40
2018-06-19T08:46:41.702Z,2.30
2018-06-19T08:49:12.426Z,2.43
2018-06-19T08:51:41.874Z,1.77
2018-06-19T08:54:11.367Z,2.00
2018-06-19T08:56:40.816Z,1.90
2018-06-19T08:59:10.213Z,2.00
2018-06-19T09:01:39.620Z,2.13
2018-06-19T09:04:09.013Z,2.20
2018-06-19T09:06:38.430Z,1.60
2018-06-19T09:09:10.349Z,2.20
2018-06-19T09:11:39.890Z,1.60
2018-06-19T09:14:09.309Z,1.50
2018-06-19T09:16:38.672Z,1.93
2018-06-19T09:19:08.091Z,2.10
2018-06-19T09:21:37.537Z,2.57
2018-06-19T09:24:06.987Z,2.63
2018-06-19T09:26:36.466Z,2.13
2018-06-19T09:29:05.989Z,2.03
2018-06-19T09:31:35.339Z,2.40
2018-06-19T09:34:04.945Z,1.90
2018-06-19T09:36:34.385Z,2.20
2018-06-19T09:39:04.436Z,2.23
2018-06-19T09:41:33.876Z,2.77
2018-06-19T09:44:03.396Z,2.60
2018-06-19T09:46:32.791Z,2.70
2018-06-19T09:49:02.233Z,2.23
2018-06-19T09:51:32.022Z,2.80
2018-06-19T09:54:01.484Z,2.73
2018-06-19T09:56:30.921Z,2.20
2018-06-19T09:59:00.363Z,2.00
2018-06-19T10:01:29.812Z,2.70
2018-06-19T10:03:59.231Z,2.50
2018-06-19T10:06:29.000Z,2.40
2018-06-19T10:08:58.398Z,3.33
2018-06-19T10:11:27.792Z,2.83
2018-06-19T10:13:57.415Z,3.60
2018-06-19T10:16:26.845Z,3.17
2018-06-19T10:18:56.202Z,3.53
2018-06-19T10:21:25.608Z,2.70
2018-06-19T10:23:55.024Z,2.90
2018-06-19T10:26:24.412Z,3.03
2018-06-19T10:28:53.824Z,3.27
2018-06-19T10:31:23.199Z,2.37
2018-06-19T10:33:52.749Z,2.37
2018-06-19T10:36:21.855Z,2.33
2018-06-19T10:38:51.212Z,2.73
2018-06-19T10:41:27.201Z,1.90
2018-06-19T10:43:56.590Z,2.03
2018-06-19T10:46:25.997Z,2.77
2018-06-19T10:48:55.805Z,1.90
2018-06-19T10:51:25.221Z,1.77
2018-06-19T10:53:54.301Z,2.40
2018-06-19T10:56:23.703Z,2.53
2018-06-19T10:58:53.056Z,3.67
2018-06-19T11:01:22.469Z,2.00
2018-06-19T11:03:51.892Z,2.30
2018-06-19T11:06:21.448Z,2.00
2018-06-19T11:08:50.772Z,1.90
2018-06-19T11:11:20.261Z,2.37
2018-06-19T11:13:49.648Z,2.00
2018-06-19T11:16:19.187Z,2.40
2018-06-19T11:18:48.557Z,2.10
2018-06-19T11:21:18.309Z,3.40
2018-06-19T11:23:48.535Z,2.90
2018-06-19T11:26:18.394Z,3.17
2018-06-19T11:28:48.235Z,2.90
2018-06-19T11:31:18.383Z,2.40
2018-06-19T11:33:48.409Z,2.67
2018-06-19T11:36:17.932Z,2.40
2018-06-19T11:38:47.338Z,2.70
2018-06-19T11:41:16.853Z,2.20
2018-06-19T11:43:46.375Z,2.30
2018-06-19T11:46:15.768Z,3.80
2018-06-19T11:48:45.211Z,2.83
2018-06-19T11:51:14.596Z,2.60
2018-06-19T11:53:44.061Z,2.10
2018-06-19T11:56:13.490Z,2.20
2018-06-19T11:58:42.834Z,3.07
2018-06-19T12:01:12.296Z,2.90
2018-06-19T12:03:41.723Z,2.50
2018-06-19T12:06:11.094Z,2.07
2018-06-19T12:08:40.460Z,2.40
2018-06-19T12:11:09.881Z,2.43
2018-06-19T12:13:39.360Z,2.17
2018-06-19T12:16:08.772Z,2.37
2018-06-19T12:18:38.173Z,2.27
2018-06-19T12:21:07.596Z,2.53
2018-06-19T12:23:36.973Z,2.30
2018-06-19T12:26:06.505Z,2.27
2018-06-19T12:28:35.953Z,2.87
2018-06-19T12:31:05.426Z,2.97
2018-06-19T12:33:34.808Z,2.60
2018-06-19T12:36:04.298Z,2.40
2018-06-19T12:38:33.838Z,2.43
2018-06-19T12:41:03.215Z,2.33
2018-06-19T12:43:32.637Z,2.63
2018-06-19T12:46:02.181Z,1.93
2018-06-19T12:48:31.601Z,2.20
2018-06-19T12:52:17.824Z,2.50
2018-06-19T12:56:35.537Z,2.50
2018-06-19T12:59:04.936Z,1.70
2018-06-19T13:01:34.392Z,1.90
2018-06-19T13:05:20.754Z,2.10
2018-06-19T13:07:50.129Z,2.27
2018-06-19T13:10:19.543Z,2.33
2018-06-19T13:13:32.475Z,1.60
2018-06-19T13:16:01.872Z,2.30
2018-06-19T13:18:48.343Z,2.67
2018-06-19T13:21:17.755Z,2.67
2018-06-19T13:23:47.177Z,2.70
2018-06-19T13:26:16.641Z,2.40
2018-06-19T13:30:08.670Z,2.53
2018-06-19T13:32:38.845Z,2.27
2018-06-19T13:35:08.046Z,2.43
2018-06-19T13:37:37.518Z,2.60
2018-06-19T13:41:23.249Z,3.10
2018-06-19T13:44:12.358Z,2.67
2018-06-19T13:46:42.244Z,2.77
2018-06-19T13:49:11.651Z,2.60
2018-06-19T13:51:41.035Z,3.03
2018-06-19T13:54:10.483Z,2.90
2018-06-19T13:57:33.567Z,4.20
2018-06-19T14:00:05.154Z,3.40
2018-06-19T14:02:34.620Z,3.33
2018-06-19T14:05:04.448Z,3.03
2018-06-19T14:07:39.464Z,3.70
2018-06-19T14:10:31.679Z,4.03
2018-06-19T14:13:02.051Z,3.60
2018-06-19T14:15:39.092Z,4.27
2018-06-19T14:18:09.074Z,3.43
2018-06-19T14:20:39.016Z,3.50
2018-06-19T14:23:08.461Z,4.00
2018-06-19T14:25:37.951Z,3.73
2018-06-19T14:28:07.382Z,2.97
2018-06-19T14:30:36.765Z,3.00
2018-06-19T14:33:06.328Z,2.97
2018-06-19T14:35:35.794Z,4.17
2018-06-19T14:38:05.176Z,3.20
2018-06-19T14:40:34.668Z,3.33
2018-06-19T14:43:04.066Z,3.00
2018-06-19T14:45:33.515Z,2.70
2018-06-19T14:48:02.961Z,2.13
2018-06-19T14:50:32.356Z,2.20
2018-06-19T14:53:01.775Z,2.70
2018-06-19T14:55:31.192Z,2.10
2018-06-19T14:58:00.574Z,2.90
2018-06-19T15:00:30.071Z,2.23
2018-06-19T15:02:59.684Z,2.43
2018-06-19T15:05:29.100Z,2.60
2018-06-19T15:07:58.515Z,2.50
2018-06-19T15:10:27.916Z,2.70
2018-06-19T15:12:57.402Z,3.37
2018-06-19T15:15:26.753Z,2.73
2018-06-19T15:17:56.207Z,2.60
2018-06-19T15:20:25.602Z,1.80
2018-06-19T15:22:55.043Z,3.93
2018-06-19T15:25:24.555Z,1.63
2018-06-19T15:27:54.007Z,1.83
2018-06-19T15:30:23.357Z,2.13
2018-06-19T15:32:52.760Z,1.77
2018-06-19T15:35:22.181Z,1.80
2018-06-19T15:37:51.590Z,2.00
2018-06-19T15:40:21.044Z,2.17
2018-06-19T15:42:50.500Z,2.73
2018-06-19T15:45:19.948Z,2.20
2018-06-19T15:47:49.317Z,2.33
2018-06-19T15:50:18.737Z,2.30
2018-06-19T15:52:48.196Z,2.60
2018-06-19T15:55:17.643Z,2.63
2018-06-19T15:57:47.016Z,3.17
2018-06-19T16:00:16.391Z,2.57
2018-06-19T16:02:45.844Z,2.93
2018-06-19T16:05:15.244Z,2.70
2018-06-19T16:07:49.804Z,2.33
2018-06-19T16:10:19.276Z,2.30
2018-06-19T16:12:48.751Z,2.23
2018-06-19T16:15:18.124Z,2.70
2018-06-19T16:17:47.631Z,2.23
2018-06-19T16:20:17.083Z,2.80
2018-06-19T16:22:46.700Z,3.10
2018-06-19T16:25:16.263Z,2.53
2018-06-19T16:27:45.723Z,3.10
2018-06-19T16:30:15.124Z,2.60
2018-06-19T16:32:44.599Z,2.70
2018-06-19T16:35:14.055Z,3.30
2018-06-19T16:37:43.540Z,2.80
2018-06-19T16:40:12.936Z,3.07
2018-06-19T16:42:42.521Z,3.03
2018-06-19T16:45:11.969Z,2.73
2018-06-19T16:47:41.439Z,3.13
2018-06-19T16:50:10.901Z,2.77
2018-06-19T16:52:40.353Z,3.20
2018-06-19T16:55:09.901Z,2.90
2018-06-19T16:57:39.372Z,3.10
2018-06-19T17:00:08.849Z,3.23
2018-06-19T17:02:38.629Z,2.90
2018-06-19T17:05:08.105Z,2.50
2018-06-19T17:07:40.934Z,2.80
2018-06-19T17:10:10.787Z,3.20
2018-06-19T17:12:40.299Z,3.20
2018-06-19T17:15:09.763Z,3.43
2018-06-19T17:17:39.343Z,3.03
2018-06-19T17:20:08.963Z,3.20
2018-06-19T17:22:38.443Z,4.17
2018-06-19T17:25:07.955Z,3.60
2018-06-19T17:27:37.390Z,4.10
2018-06-19T17:30:06.587Z,3.73
2018-06-19T17:32:35.990Z,3.30
2018-06-19T17:35:05.385Z,3.80
2018-06-19T17:37:34.913Z,2.83
2018-06-19T17:40:04.354Z,2.70
2018-06-19T17:42:33.715Z,2.90
2018-06-19T17:45:03.239Z,3.50
2018-06-19T17:47:32.665Z,3.40
2018-06-19T17:50:02.095Z,2.87
2018-06-19T17:52:31.586Z,3.03
2018-06-19T17:55:01.189Z,3.57
2018-06-19T17:57:30.695Z,3.80
2018-06-19T18:00:00.150Z,4.00
2018-06-19T18:02:29.552Z,3.70
2018-06-19T18:04:58.914Z,3.63
2018-06-19T18:07:28.357Z,4.00
2018-06-19T18:09:57.812Z,3.87
2018-06-19T18:12:27.238Z,4.17
2018-06-19T18:14:56.611Z,4.27
2018-06-19T18:17:26.094Z,4.77
2018-06-19T18:19:55.452Z,4.77
2018-06-19T18:22:24.840Z,5.10
2018-06-19T18:24:54.289Z,5.07
2018-06-19T18:27:23.713Z,5.30
2018-06-19T18:29:53.131Z,6.30
2018-06-19T18:32:22.616Z,5.90
2018-06-19T18:34:52.027Z,7.23
2018-06-19T18:37:21.470Z,6.57
2018-06-19T18:39:50.926Z,7.03
2018-06-19T18:42:20.384Z,6.90
2018-06-19T18:44:49.885Z,7.77
2018-06-19T18:47:19.314Z,7.03
2018-06-19T18:49:48.751Z,7.57
2018-06-19T18:52:18.113Z,7.83
2018-06-19T18:54:47.613Z,7.53
2018-06-19T18:57:17.067Z,7.47
2018-06-19T18:59:46.455Z,7.90
2018-06-19T19:02:15.995Z,8.17
2018-06-19T19:04:45.446Z,9.00
2018-06-19T19:07:14.947Z,7.80
2018-06-19T19:09:49.596Z,7.83
2018-06-19T19:12:19.035Z,8.60
2018-06-19T19:14:53.616Z,8.90
2018-06-19T19:17:28.198Z,9.60
2018-06-19T19:19:57.624Z,9.23
2018-06-19T19:22:27.188Z,8.37
2018-06-19T19:24:56.644Z,8.77
2018-06-19T19:27:31.353Z,8.37
2018-06-19T19:30:00.769Z,9.43
2018-06-19T19:32:30.272Z,9.10
2018-06-19T19:34:59.689Z,9.00
2018-06-19T19:37:34.431Z,9.00
2018-06-19T19:40:03.870Z,10.10
2018-06-19T19:42:33.282Z,9.90
2018-06-19T19:45:02.756Z,8.93
2018-06-19T19:47:37.496Z,9.50
2018-06-19T19:50:06.933Z,10.23
2018-06-19T19:52:36.419Z,9.20
2018-06-19T19:55:06.042Z,10.40
2018-06-19T19:57:40.728Z,9.27
2018-06-19T20:00:11.968Z,9.80
2018-06-19T20:02:41.501Z,10.27
2018-06-19T20:05:11.031Z,10.90
2018-06-19T20:07:40.977Z,10.90
2018-06-19T20:10:10.420Z,11.80
2018-06-19T20:12:39.872Z,13.40
2018-06-19T20:15:09.310Z,10.90
2018-06-19T20:17:38.755Z,12.63
2018-06-19T20:20:10.382Z,13.13
2018-06-19T20:22:40.600Z,15.27
2018-06-19T20:25:10.699Z,14.87
2018-06-19T20:27:40.263Z,14.17
2018-06-19T20:30:10.301Z,17.60
2018-06-19T20:32:40.009Z,17.23
2018-06-19T20:38:06.799Z,18.93
2018-06-19T20:40:36.253Z,19.27
2018-06-19T20:43:05.633Z,18.00
2018-06-19T20:45:35.119Z,17.90
2018-06-19T20:48:04.600Z,20.40
2018-06-19T20:50:33.993Z,18.47
2018-06-19T20:53:03.398Z,21.33
2018-06-19T20:55:33.161Z,18.63
2018-06-19T20:58:02.590Z,19.10
2018-06-19T21:00:32.002Z,19.23
2018-06-19T21:03:01.501Z,20.23
2018-06-19T21:05:31.032Z,18.63
2018-06-19T21:08:00.485Z,22.07
2018-06-19T21:10:29.957Z,22.53
2018-06-19T21:12:59.410Z,22.40
2018-06-19T21:15:28.998Z,21.87
2018-06-19T21:17:58.541Z,21.07
2018-06-19T21:20:28.021Z,23.47
2018-06-19T21:22:57.557Z,22.10
2018-06-19T21:25:26.968Z,22.13
2018-06-19T21:27:56.399Z,20.63
2018-06-19T21:30:25.838Z,20.53
2018-06-19T21:32:55.279Z,21.07
2018-06-19T21:35:24.704Z,20.73
2018-06-19T21:37:54.151Z,21.10
2018-06-19T21:40:23.606Z,19.83
2018-06-19T21:42:53.012Z,20.63
2018-06-19T21:45:22.592Z,20.30
2018-06-19T21:47:52.104Z,20.70
2018-06-19T21:50:21.562Z,21.10
2018-06-19T21:52:51.143Z,22.13
2018-06-19T21:55:20.900Z,20.40
2018-06-19T21:57:50.363Z,22.17
2018-06-19T22:00:19.786Z,22.37
2018-06-19T22:02:49.254Z,21.57
2018-06-19T22:05:18.735Z,20.30
2018-06-19T22:07:48.189Z,22.10
2018-06-19T22:10:17.633Z,22.63
2018-06-19T22:12:47.083Z,22.00
2018-06-19T22:15:16.527Z,22.30
2018-06-19T22:17:46.052Z,23.23
2018-06-19T22:20:15.476Z,23.83
2018-06-19T22:22:44.975Z,22.90
2018-06-19T22:25:14.392Z,23.30
2018-06-19T22:27:43.826Z,22.53
2018-06-19T22:30:13.306Z,21.87
2018-06-19T22:32:42.777Z,23.93
2018-06-19T22:35:12.212Z,22.97
2018-06-19T22:37:41.705Z,23.33
2018-06-19T22:40:11.137Z,23.73
2018-06-19T22:42:40.624Z,24.50
2018-06-19T22:45:09.944Z,23.10
2018-06-19T22:47:39.744Z,23.70
2018-06-19T22:50:09.217Z,20.70
2018-06-19T22:52:38.651Z,24.53
2018-06-19T22:55:08.243Z,21.50
2018-06-19T22:57:37.744Z,22.83
2018-06-19T23:00:07.290Z,19.63
2018-06-19T23:02:36.719Z,22.43
2018-06-19T23:05:06.326Z,19.10
2018-06-19T23:07:35.741Z,21.50
2018-06-19T23:10:05.568Z,23.63
2018-06-19T23:12:35.107Z,23.73
2018-06-19T23:15:04.746Z,22.43
2018-06-19T23:17:34.364Z,22.00
2018-06-19T23:20:03.920Z,23.50
2018-06-19T23:22:33.506Z,24.10
2018-06-19T23:25:03.089Z,22.70
2018-06-19T23:27:32.699Z,23.53
2018-06-19T23:30:02.191Z,23.80
2018-06-19T23:32:31.803Z,23.90
2018-06-19T23:35:01.389Z,27.80
2018-06-19T23:37:30.852Z,24.80
2018-06-19T23:40:00.245Z,24.60
2018-06-19T23:42:29.630Z,24.83
2018-06-19T23:44:59.196Z,24.23
2018-06-19T23:47:28.598Z,24.20
2018-06-19T23:49:58.123Z,25.30
2018-06-19T23:52:27.681Z,24.60
2018-06-19T23:54:57.180Z,21.70
2018-06-19T23:57:26.668Z,23.40
2018-06-19T23:59:56.202Z,24.40
